Time;durP1;ratioP1;P1;durP2;ratioP2;P2;SDS_P1;SDS_P2;PMS_P1;PMS_P2;Temp;Humidity;BMP_temperature;BMP_pressure;BME280_temperature;BME280_humidity;BME280_pressure;Samples;Min_cycle;Max_cycle;Signal;HPM_P1;HPM_P2
2021/04/18 00:04:42;;;;;;;10.57;6.03;;;6.20;99.90;;;;;;20742437;28;20042;-78
2021/04/18 00:14:43;;;;;;;9.43;5.90;;;6.00;99.90;;;;;;20802555;28;20041;-79
2021/04/18 00:24:44;;;;;;;12.93;6.30;;;6.00;99.90;;;;;;20790296;28;20033;-78
2021/04/18 00:34:45;;;;;;;11.63;6.40;;;6.10;99.90;;;;;;20845848;22;20103;-74
2021/04/18 00:44:45;;;;;;;12.77;6.30;;;6.20;99.90;;;;;;20948776;28;20410;-74
2021/04/18 00:54:46;;;;;;;8.80;5.93;;;6.10;99.90;;;;;;20924073;28;20133;-74
2021/04/18 01:04:47;;;;;;;10.70;5.03;;;6.10;99.90;;;;;;20903629;28;20490;-74
2021/04/18 01:14:48;;;;;;;10.87;5.80;;;6.00;99.90;;;;;;20906828;28;20037;-74
2021/04/18 01:24:49;;;;;;;10.25;6.32;;;6.00;99.90;;;;;;20906940;28;20041;-73
2021/04/18 01:35:11;;;;;;;10.75;6.28;;;5.90;99.90;;;;;;20906466;28;20037;-74
2021/04/18 01:45:15;;;;;;;14.30;6.15;;;5.90;99.90;;;;;;20906302;28;20090;-74
2021/04/18 01:55:17;;;;;;;9.60;6.25;;;5.90;99.90;;;;;;20921330;28;20033;-74
2021/04/18 02:05:20;;;;;;;10.82;5.80;;;5.90;99.90;;;;;;20903344;28;20435;-74
2021/04/18 02:15:22;;;;;;;11.15;6.28;;;5.90;99.90;;;;;;20919065;28;20041;-74
2021/04/18 02:25:23;;;;;;;12.95;6.78;;;5.80;99.90;;;;;;20917960;28;20145;-74
2021/04/18 02:35:26;;;;;;;10.20;6.22;;;5.70;99.90;;;;;;20917063;28;20507;-74
2021/04/18 02:45:28;;;;;;;10.80;5.70;;;5.60;99.90;;;;;;20917914;28;20065;-74
2021/04/18 02:55:29;;;;;;;11.23;6.53;;;5.60;99.90;;;;;;20916907;28;20044;-74
2021/04/18 03:05:50;;;;;;;11.68;6.60;;;5.60;99.90;;;;;;20915884;28;20044;-74
2021/04/18 03:15:51;;;;;;;13.73;6.67;;;5.40;99.90;;;;;;20913973;28;20069;-74
2021/04/18 03:25:52;;;;;;;10.00;6.07;;;5.50;99.90;;;;;;20914690;28;20033;-74
2021/04/18 03:35:55;;;;;;;10.70;6.82;;;5.60;99.90;;;;;;20912343;28;20045;-74
2021/04/18 03:45:57;;;;;;;10.90;7.00;;;5.40;99.90;;;;;;20912907;28;20037;-74
2021/04/18 03:56:04;;;;;;;11.57;7.25;;;5.20;99.90;;;;;;20910494;28;20098;-74
2021/04/18 04:06:14;;;;;;;15.45;8.02;;;5.20;99.90;;;;;;20909995;28;20070;-73
2021/04/18 04:16:17;;;;;;;13.45;7.65;;;5.30;99.90;;;;;;20909185;28;20041;-74
2021/04/18 04:26:19;;;;;;;29.83;11.18;;;5.40;99.90;;;;;;20908732;28;20522;-74
2021/04/18 04:36:21;;;;;;;13.37;8.17;;;5.10;99.90;;;;;;20908991;28;20115;-74
2021/04/18 04:46:22;;;;;;;;;;;5.20;99.90;;;;;;20908978;28;20045;-74
2021/04/18 04:56:23;;;;;;;15.85;9.07;;;5.00;99.90;;;;;;20907607;28;20361;-74
2021/04/18 05:06:23;;;;;;;16.70;8.93;;;5.00;99.90;;;;;;20907245;28;20483;-74
2021/04/18 05:16:24;;;;;;;17.90;9.50;;;4.90;99.90;;;;;;20907417;28;20667;-74
2021/04/18 05:26:26;;;;;;;19.70;10.13;;;4.90;99.90;;;;;;20911610;28;20083;-74
2021/04/18 05:36:27;;;;;;;20.98;11.38;;;4.90;99.90;;;;;;20923321;28;20092;-74
2021/04/18 05:46:28;;;;;;;16.03;10.17;;;5.00;99.90;;;;;;20922782;28;20033;-74
2021/04/18 05:56:29;;;;;;;17.03;9.73;;;5.20;99.90;;;;;;20922021;28;20037;-74
2021/04/18 06:06:29;;;;;;;16.53;10.33;;;5.60;99.90;;;;;;20919640;28;20051;-75
2021/04/18 06:16:30;;;;;;;16.23;9.77;;;5.80;99.90;;;;;;20919697;28;20037;-74
2021/04/18 06:26:31;;;;;;;14.87;9.20;;;6.20;99.90;;;;;;20919416;28;20091;-74
2021/04/18 06:36:32;;;;;;;17.87;10.03;;;6.30;99.90;;;;;;20863600;22;20100;-73
2021/04/18 06:46:33;;;;;;;18.20;11.60;;;6.30;99.90;;;;;;20754170;28;20078;-74
2021/04/18 06:56:34;;;;;;;18.03;9.87;;;6.60;99.90;;;;;;20730161;28;20054;-73
2021/04/18 07:06:42;;;;;;;15.17;8.77;;;6.90;99.90;;;;;;20750919;28;20459;-73
2021/04/18 07:16:43;;;;;;;13.75;8.32;;;6.90;99.90;;;;;;20821704;28;20077;-74
2021/04/18 07:26:52;;;;;;;10.23;6.50;;;7.10;99.90;;;;;;20772581;28;20046;-73
2021/04/18 07:37:06;;;;;;;14.23;7.82;;;7.50;99.90;;;;;;20728913;28;20049;-75
2021/04/18 07:47:07;;;;;;;14.98;8.30;;;7.60;99.90;;;;;;20773365;28;20527;-74
2021/04/18 07:57:08;;;;;;;9.63;6.43;;;7.50;99.90;;;;;;20757935;28;20046;-74
2021/04/18 08:07:10;;;;;;;14.60;8.67;;;7.30;99.90;;;;;;20769156;28;20398;-74
2021/04/18 08:17:19;;;;;;;16.47;9.23;;;7.40;99.90;;;;;;20750254;28;20089;-74
2021/04/18 08:27:20;;;;;;;13.80;8.38;;;7.50;99.90;;;;;;20726300;28;20566;-74
2021/04/18 08:37:21;;;;;;;12.00;8.27;;;7.70;99.90;;;;;;20732250;28;20045;-74
2021/04/18 08:47:28;;;;;;;15.60;8.53;;;7.60;99.90;;;;;;20743740;28;20033;-74
2021/04/18 08:57:32;;;;;;;14.98;8.55;;;8.00;99.90;;;;;;20738058;28;20125;-74
2021/04/18 09:07:36;;;;;;;17.40;9.48;;;8.20;99.90;;;;;;20751259;28;20500;-74
2021/04/18 09:17:38;;;;;;;16.58;9.50;;;8.10;99.90;;;;;;20745340;28;20180;-74
2021/04/18 09:27:45;;;;;;;14.35;8.98;;;8.60;99.90;;;;;;20754286;28;20033;-74
2021/04/18 09:37:59;;;;;;;14.00;9.45;;;9.10;99.90;;;;;;20792293;28;20044;-74
2021/04/18 09:48:18;;;;;;;14.18;8.55;;;9.40;99.90;;;;;;20792777;28;20042;-74
2021/04/18 09:58:30;;;;;;;15.15;9.02;;;9.30;99.90;;;;;;20787778;28;20069;-74
2021/04/18 10:08:36;;;;;;;39.17;18.50;;;9.10;99.90;;;;;;20794001;28;20034;-75
2021/04/18 10:18:39;;;;;;;12.65;8.55;;;9.10;99.90;;;;;;20793371;28;20052;-74
2021/04/18 10:28:40;;;;;;;13.55;8.63;;;8.80;99.90;;;;;;20749068;28;20049;-77
2021/04/18 10:38:41;;;;;;;13.60;8.93;;;8.80;99.90;;;;;;20730438;28;20041;-77
2021/04/18 10:48:42;;;;;;;16.88;9.40;;;8.30;99.90;;;;;;20740175;28;20065;-77
2021/04/18 10:58:43;;;;;;;15.27;11.27;;;8.40;99.90;;;;;;20754132;28;20648;-76
2021/04/18 11:08:44;;;;;;;33.37;20.47;;;8.10;99.90;;;;;;20746369;28;20029;-76
2021/04/18 11:18:45;;;;;;;17.70;8.77;;;8.20;99.90;;;;;;20752748;28;20049;-76
2021/04/18 11:28:47;;;;;;;14.27;9.37;;;8.50;99.90;;;;;;20765584;28;20112;-76
2021/04/18 11:38:48;;;;;;;14.38;9.07;;;8.10;99.90;;;;;;20771005;28;20538;-76
2021/04/18 11:48:49;;;;;;;18.60;9.57;;;7.90;99.90;;;;;;20754933;28;20057;-77
2021/04/18 11:58:50;;;;;;;15.73;9.00;;;8.20;99.90;;;;;;20791007;28;20049;-78
2021/04/18 12:08:51;;;;;;;15.67;8.97;;;8.60;99.90;;;;;;20718388;28;20034;-76
2021/04/18 12:18:51;;;;;;;20.90;13.43;;;8.50;99.90;;;;;;20750739;28;20038;-77
2021/04/18 12:28:53;;;;;;;18.63;10.53;;;8.20;99.90;;;;;;20743375;28;20033;-77
2021/04/18 12:38:53;;;;;;;15.83;10.27;;;8.20;99.90;;;;;;20744572;22;20061;-75
2021/04/18 12:48:56;;;;;;;16.43;10.43;;;8.30;99.90;;;;;;20744316;28;20651;-75
2021/04/18 12:58:58;;;;;;;13.23;9.57;;;8.80;99.90;;;;;;20702325;28;20145;-75
2021/04/18 13:09:02;;;;;;;17.33;10.13;;;9.70;99.90;;;;;;20712773;28;20137;-75
2021/04/18 13:19:03;;;;;;;15.23;10.10;;;9.70;99.90;;;;;;20766126;28;20409;-75
2021/04/18 13:29:04;;;;;;;13.97;9.93;;;10.30;99.90;;;;;;20795711;28;20618;-74
2021/04/18 13:39:06;;;;;;;13.65;9.23;;;10.40;99.90;;;;;;20766410;28;20045;-75
2021/04/18 13:49:07;;;;;;;14.30;8.80;;;9.80;99.90;;;;;;20773867;28;20110;-74
2021/04/18 13:59:08;;;;;;;16.65;9.60;;;9.70;99.90;;;;;;20776936;28;20056;-75
2021/04/18 14:09:10;;;;;;;;;;;9.60;99.90;;;;;;20764557;28;20512;-75
2021/04/18 14:19:11;;;;;;;15.02;9.80;;;9.00;99.90;;;;;;20740760;28;19917;-75
2021/04/18 14:29:11;;;;;;;13.70;9.37;;;9.10;99.90;;;;;;20756577;28;20133;-75
2021/04/18 14:39:12;;;;;;;13.13;9.07;;;9.00;99.90;;;;;;20746525;28;20045;-75
2021/04/18 14:49:13;;;;;;;13.80;8.93;;;9.00;99.90;;;;;;20776564;28;20522;-74
2021/04/18 14:59:15;;;;;;;13.73;9.83;;;9.40;99.90;;;;;;20772090;28;20041;-74
2021/04/18 15:09:15;;;;;;;16.23;8.80;;;9.30;99.90;;;;;;20780186;28;20043;-74
2021/04/18 15:19:20;;;;;;;10.87;7.43;;;9.60;99.90;;;;;;20814159;28;20803;-74
2021/04/18 15:29:23;;;;;;;11.32;6.47;;;9.90;99.90;;;;;;20758184;28;20117;-74
2021/04/18 15:39:25;;;;;;;10.25;6.30;;;10.40;99.90;;;;;;20711869;28;20476;-74
2021/04/18 15:49:26;;;;;;;8.32;5.55;;;10.30;99.90;;;;;;20695165;28;20041;-74
2021/04/18 15:59:28;;;;;;;11.57;6.47;;;9.80;99.90;;;;;;20739671;28;20042;-74
2021/04/18 16:09:30;;;;;;;11.30;6.05;;;9.50;99.90;;;;;;20692055;28;20045;-74
2021/04/18 16:19:31;;;;;;;8.73;5.47;;;9.00;99.90;;;;;;20709802;28;20064;-74
2021/04/18 16:29:32;;;;;;;10.47;5.60;;;9.20;99.90;;;;;;20727718;28;20056;-74
2021/04/18 16:39:33;;;;;;;9.35;5.28;;;9.30;99.90;;;;;;20690671;28;20300;-74
2021/04/18 16:49:34;;;;;;;9.00;5.67;;;9.20;99.90;;;;;;20735479;28;20122;-74
2021/04/18 16:59:35;;;;;;;9.90;5.63;;;9.00;99.90;;;;;;20745726;28;20049;-75
2021/04/18 17:09:36;;;;;;;13.00;6.47;;;8.70;99.90;;;;;;20771739;28;20068;-74
2021/04/18 17:19:38;;;;;;;10.47;5.73;;;8.70;99.90;;;;;;20769258;28;20046;-74
2021/04/18 17:29:39;;;;;;;11.37;5.57;;;8.60;99.90;;;;;;20738480;28;20718;-74
2021/04/18 17:39:41;;;;;;;7.70;4.97;;;8.70;99.90;;;;;;20758322;28;20037;-74
2021/04/18 17:49:41;;;;;;;;;;;8.80;99.90;;;;;;20737531;28;20064;-74
2021/04/18 17:59:42;;;;;;;7.57;5.10;;;8.80;99.90;;;;;;20734878;28;19980;-74
2021/04/18 18:09:44;;;;;;;12.97;6.20;;;8.60;99.90;;;;;;20750285;28;20553;-74
2021/04/18 18:19:45;;;;;;;12.40;6.03;;;8.20;99.90;;;;;;20747120;28;20044;-74
2021/04/18 18:29:45;;;;;;;11.80;6.93;;;8.00;99.90;;;;;;20729982;28;20033;-75
2021/04/18 18:39:46;;;;;;;14.87;6.80;;;7.90;99.90;;;;;;20739312;28;20038;-74
2021/04/18 18:49:47;;;;;;;10.30;5.07;;;7.60;99.90;;;;;;20741804;28;20045;-74
2021/04/18 18:59:48;;;;;;;19.70;7.10;;;7.60;99.90;;;;;;20757155;28;20079;-74
2021/04/18 19:09:54;;;;;;;11.63;6.53;;;7.60;99.90;;;;;;20728643;28;20073;-74
2021/04/18 19:19:55;;;;;;;15.50;6.80;;;7.60;99.90;;;;;;20727935;28;20779;-74
2021/04/18 19:29:56;;;;;;;13.27;6.27;;;7.60;99.90;;;;;;20727450;28;20063;-74
2021/04/18 19:39:57;;;;;;;15.07;6.07;;;7.50;99.90;;;;;;20708025;28;20112;-74
2021/04/18 19:49:58;;;;;;;12.47;6.93;;;7.20;99.90;;;;;;20725412;28;20041;-74
2021/04/18 19:59:59;;;;;;;18.43;9.63;;;7.30;99.90;;;;;;20756938;28;20049;-75
2021/04/18 20:10:01;;;;;;;10.67;6.13;;;7.50;99.90;;;;;;20762409;28;20033;-74
2021/04/18 20:20:03;;;;;;;9.98;6.50;;;7.40;99.90;;;;;;20757817;28;20045;-75
2021/04/18 20:30:09;;;;;;;11.50;6.53;;;7.10;99.90;;;;;;20744316;28;20041;-75
2021/04/18 20:40:12;;;;;;;14.73;7.45;;;7.00;99.90;;;;;;20760845;28;20049;-74
2021/04/18 20:50:13;;;;;;;16.93;8.03;;;6.90;99.90;;;;;;20737967;28;20041;-75
2021/04/18 21:10:17;;;;;;;18.55;8.23;;;6.80;99.90;;;;;;20653006;28;20053;-75
2021/04/18 21:20:18;;;;;;;16.37;7.80;;;6.70;99.90;;;;;;20657592;28;20038;-75
2021/04/18 21:30:20;;;;;;;13.57;7.43;;;6.60;99.90;;;;;;20659949;28;20573;-76
2021/04/18 21:40:21;;;;;;;14.63;7.75;;;6.50;99.90;;;;;;20657896;28;20038;-75
2021/04/18 21:50:24;;;;;;;14.35;7.13;;;6.40;99.90;;;;;;20658796;28;20031;-76
2021/04/18 22:00:25;;;;;;;15.93;8.05;;;6.50;99.90;;;;;;20657802;28;20508;-75
2021/04/18 22:10:26;;;;;;;24.53;8.43;;;6.50;99.90;;;;;;20669497;28;20049;-76
2021/04/18 22:20:27;;;;;;;16.60;7.37;;;6.20;99.90;;;;;;20674807;28;20124;-75
2021/04/18 22:30:28;;;;;;;8.40;5.17;;;6.30;99.90;;;;;;20674672;28;20058;-75
2021/04/18 22:40:30;;;;;;;12.20;5.23;;;6.20;99.90;;;;;;20673394;28;20039;-75
2021/04/18 22:50:31;;;;;;;17.37;8.33;;;6.20;99.90;;;;;;20688069;28;20042;-75
2021/04/18 23:00:32;;;;;;;15.03;6.80;;;6.20;99.90;;;;;;20672390;28;20511;-75
2021/04/18 23:10:33;;;;;;;12.27;6.03;;;5.60;99.90;;;;;;20686654;28;20053;-75
2021/04/18 23:20:33;;;;;;;14.67;6.40;;;5.30;99.90;;;;;;20669130;28;20143;-75
2021/04/18 23:30:34;;;;;;;11.60;5.47;;;5.00;99.90;;;;;;20669719;28;20062;-75
2021/04/18 23:40:35;;;;;;;11.10;6.47;;;5.00;99.90;;;;;;20669256;28;20101;-75
2021/04/18 23:50:36;;;;;;;13.57;6.90;;;4.80;99.90;;;;;;20668537;28;20038;-76
